Home > Products > Valid Products > TAF

000
FTUS44 KLCH 191100 RRA
TAFLFT
TAF
KLFT 191146Z 1912/2012 VRB05KT P6SM SKC=



000
FTUS44 KLCH 191100 RRA
TAFLCH
TAF
KLCH 191146Z 1912/2012 09005KT P6SM SCT250
     FM191500 12006KT P6SM FEW050 SCT250=



000
FTUS44 KLCH 191100 RRA
TAFAEX
TAF
KAEX 191146Z 1912/2012 VRB04KT P6SM FEW250
     FM191500 08003KT P6SM SKC=



000
FTUS44 KLCH 191100 RRA
TAFARA
TAF
KARA 191146Z 1912/2012 07006KT P6SM SKC=



000
FTUS44 KLCH 191100 RRA
TAFBPT
TAF
KBPT 191146Z 1912/2012 08005KT P6SM SCT250
     FM191500 12009KT P6SM FEW050 SCT250=



000
FTUS44 KLCH 190500
TAFBPT
TAF
KBPT 190522Z 1906/2006 03005KT P6SM SKC
     FM191400 12009KT P6SM FEW050 SCT250=



000
FTUS44 KLCH 190500
TAFLCH
TAF
KLCH 190522Z 1906/2006 01005KT P6SM SKC
     FM191400 09008KT P6SM FEW050 SCT250=



000
FTUS44 KLCH 190500
TAFAEX
TAF
KAEX 190522Z 1906/2006 VRB04KT P6SM FEW050 BKN080
     FM191500 06003KT P6SM SKC=



000
FTUS44 KLCH 190500
TAFLFT
TAF
KLFT 190522Z 1906/2006 VRB05KT P6SM SKC=



000
FTUS44 KLCH 190500
TAFARA
TAF
KARA 190522Z 1906/2006 VRB05KT P6SM BKN060 BKN070
     FM191400 08007KT P6SM SCT250=



000
FTUS44 KLCH 182300 AAA
TAFLCH
TAF AMD
KLCH 182324Z 1823/1918 05011KT P6SM SCT045 BKN070
     FM190100 04005KT P6SM FEW070 SCT250
     FM191400 09008KT P6SM SCT250=



000
FTUS44 KLCH 182300 AAA
TAFARA
TAF AMD
KARA 182323Z 1823/1918 36011KT P6SM VCSH BKN050CB BKN100
     FM190100 VRB05KT P6SM SCT250
     FM191400 08007KT P6SM SCT250=



000
FTUS44 KLCH 182300
TAFAEX
TAF
KAEX 182322Z 1900/1924 02008KT P6SM SCT040 SCT080
     FM190100 VRB04KT P6SM SCT250=



000
FTUS44 KLCH 182300
TAFLFT
TAF
KLFT 182322Z 1900/1924 VRB05KT P6SM FEW080=



000
FTUS44 KLCH 182300
TAFLCH
TAF
KLCH 182322Z 1900/1924 02008KT P6SM FEW045 SCT080
     FM191400 09008KT P6SM SCT250=



000
FTUS44 KLCH 182300
TAFBPT
TAF
KBPT 182322Z 1900/1924 04009KT P6SM SCT050 SCT080
     FM191400 12009KT P6SM SCT250=



000
FTUS44 KLCH 182300
TAFARA
TAF
KARA 182322Z 1900/1924 VRB05KT P6SM SCT100
     FM191400 08007KT P6SM SCT250=



000
FTUS44 KLCH 181700
TAFARA
TAF
KARA 181722Z 1818/1918 36009KT P6SM BKN050
     FM190000 VRB05KT P6SM SCT250
     FM191400 08007KT P6SM SCT250=



000
FTUS44 KLCH 181700
TAFBPT
TAF
KBPT 181722Z 1818/1918 36010KT P6SM SCT030
     FM190000 04005KT P6SM SCT250
     FM191400 09009KT P6SM SCT250=



000
FTUS44 KLCH 181700
TAFLFT
TAF
KLFT 181722Z 1818/1918 01010KT P6SM BKN050
     FM190000 VRB05KT P6SM SCT250=



000
FTUS44 KLCH 181700
TAFLCH
TAF
KLCH 181722Z 1818/1918 01011KT P6SM SCT030 BKN120
     FM190000 04005KT P6SM SCT250
     FM191400 09008KT P6SM SCT250=



000
FTUS44 KLCH 181700
TAFAEX
TAF
KAEX 181722Z 1818/1918 02008KT P6SM SCT040 BKN100
     FM190100 VRB04KT P6SM SCT250=



000
FTUS44 KLCH 181400 AAB
TAFAEX
TAF AMD
KAEX 181425Z 1814/1912 VRB05KT P6SM VCSH SCT030 BKN050
      TEMPO 1814/1815 5SM -TSRA BKN030CB
     FM181700 36010KT P6SM BKN050
     FM190000 VRB05KT P6SM SCT250=



000
FTUS44 KLCH 181200 AAA
TAFLFT
TAF AMD
KLFT 181252Z 1813/1912 VRB04KT P6SM OVC035
     FM181800 36007KT P6SM SCT250
     FM190000 VRB03KT P6SM SCT250=



000
FTUS44 KLCH 181200 AAA
TAFARA
TAF AMD
KARA 181252Z 1813/1912 VRB04KT P6SM BKN035
     FM181600 01010KT P6SM BKN035
     FM181800 36009KT P6SM SCT250
     FM190000 VRB05KT P6SM SCT250=



000
FTUS44 KLCH 181200 AAA
TAFAEX
TAF AMD
KAEX 181251Z 1813/1912 VRB03KT P6SM BKN025
      TEMPO 1813/1814 5SM -SHRA
     FM181700 36010KT P6SM BKN035
     FM190000 VRB05KT P6SM SCT250=



000
FTUS44 KLCH 181200 AAA
TAFLCH
TAF AMD
KLCH 181249Z 1813/1912 01006KT P6SM BKN080
     FM181600 36010KT P6SM SCT035
     FM190000 VRB05KT P6SM SCT250=



000
FTUS44 KLCH 181100 RRA
TAFAEX
TAF
KAEX 181145Z 1812/1912 VRB03KT P6SM BKN025
     FM181700 36010KT P6SM BKN035
     FM190000 VRB05KT P6SM SCT250=



000
FTUS44 KLCH 181100 RRA
TAFLFT
TAF
KLFT 181145Z 1812/1912 VRB04KT P6SM OVC025
     FM181600 36008KT P6SM OVC025
     FM181800 36007KT P6SM SCT250
     FM190000 VRB03KT P6SM SCT250=



000
FTUS44 KLCH 181100 RRA
TAFBPT
TAF
KBPT 181145Z 1812/1912 02006KT P6SM BKN060
     FM181600 35010KT P6SM SCT035
     FM190000 VRB05KT P6SM SCT250=



000
FTUS44 KLCH 181100 RRA
TAFLCH
TAF
KLCH 181145Z 1812/1912 01006KT P6SM BKN090
      TEMPO 1812/1814 BKN025
     FM181600 36010KT P6SM SCT035
     FM190000 VRB05KT P6SM SCT250=



000
FTUS44 KLCH 181100 RRA
TAFARA
TAF
KARA 181145Z 1812/1912 VRB04KT P6SM BKN030
     FM181600 01010KT P6SM BKN035
     FM181800 36009KT P6SM SCT250
     FM190000 VRB05KT P6SM SCT250=



000
FTUS44 KLCH 180800 AAA
TAFARA
TAF AMD
KARA 180810Z 1808/1906 01005KT 3SM BR OVC012
      TEMPO 1810/1814 2SM BR OVC007
     FM181500 01010G15KT P6SM BKN025
     FM181900 35010G15KT P6SM BKN035
     FM190000 03006KT P6SM SCT250=



000
FTUS44 KLCH 180600 AAA
TAFLFT
TAF AMD
KLFT 180640Z 1807/1906 VRB04KT P6SM OVC015
      TEMPO 1810/1814 OVC007
     FM181600 02010KT P6SM OVC025
     FM182000 01010KT P6SM BKN035
     FM190000 VRB03KT P6SM SCT250=



000
FTUS44 KLCH 180600 AAA
TAFAEX
TAF AMD
KAEX 180638Z 1807/1906 VRB04KT P6SM BKN025
     FM180900 VRB03KT P6SM BKN015
      TEMPO 1811/1814 BKN007
     FM181700 36010G15KT P6SM BKN035
     FM190000 VRB05KT P6SM SCT250=



000
FTUS44 KLCH 180600 AAA
TAFLCH
TAF AMD
KLCH 180636Z 1807/1906 VRB05KT P6SM OVC025
     FM180900 01006KT P6SM BKN015
      TEMPO 1811/1814 BKN007
     FM181700 01010G15KT P6SM SCT035
     FM190000 05004KT P6SM SCT250=



000
FTUS44 KLCH 180500
TAFBPT
TAF
KBPT 180520Z 1806/1906 03005KT P6SM BKN060 BKN090
     FM180700 02006KT P6SM BKN045 BKN080
     FM181300 02010G15KT P6SM BKN029 BKN070
     FM181600 36010G15KT P6SM SCT035
     FM190000 VRB05KT P6SM SCT035=



000
FTUS44 KLCH 180500
TAFLFT
TAF
KLFT 180520Z 1806/1906 03004KT P6SM OVC020
     FM180900 36005KT 6SM BR BKN009 OVC012
      TEMPO 1810/1814 3SM BR
     FM181400 01008KT P6SM SCT012 BKN029 BKN100
     FM181800 01007KT P6SM SCT030 SCT080
     FM182300 05003KT P6SM SKC=



000
FTUS44 KLCH 180500
TAFLCH
TAF
KLCH 180520Z 1806/1906 36005KT P6SM SCT012 SCT025 SCT050
     FM180900 01006KT P6SM BKN012 BKN025 BKN050
     FM181600 01010G15KT P6SM SCT030 SCT050
     FM190000 05004KT P6SM SCT050=



000
FTUS44 KLCH 180500
TAFARA
TAF
KARA 180520Z 1806/1906 04006KT P6SM OVC015
     FM180800 01005KT 3SM MIFG BKN009 OVC012
      TEMPO 1809/1813 1/2SM FG SCT002 OVC009
     FM181500 01010G15KT P6SM BKN029 BKN100
     FM181900 35010G15KT P6SM SCT030 SCT080
     FM182300 04006KT P6SM SKC=



000
FTUS44 KLCH 180500
TAFAEX
TAF
KAEX 180520Z 1806/1906 02004KT P6SM SCT030 BKN100
     FM181400 36010G15KT P6SM BKN030 BKN100
     FM182200 02008KT P6SM SCT027
     FM190000 10004KT P6SM SKC=



000
FTUS44 KLCH 180400 AAA
TAFAEX
TAF AMD
KAEX 180411Z 1804/1824 02004KT P6SM SCT030 BKN100
     FM181400 36010G15KT P6SM BKN030 BKN100
     FM182200 02008KT P6SM SCT027=



000
FTUS44 KLCH 180300 AAA
TAFLFT
TAF AMD
KLFT 180308Z 1803/1824 05004KT P6SM OVC018
     FM180900 36005KT 6SM BR BKN009 OVC012
      TEMPO 1810/1814 3SM BR
     FM181400 01008KT P6SM SCT012 BKN029 BKN100
     FM181800 01007KT P6SM SCT030 SCT080=



000
FTUS44 KLCH 180200 AAA
TAFARA
TAF AMD
KARA 180224Z 1802/1824 04006KT P6SM OVC015
     FM180800 01005KT 3SM MIFG BKN009 OVC012
      TEMPO 1809/1813 1/2SM FG SCT002 OVC009
     FM181500 01010G15KT P6SM BKN029 BKN100
     FM181900 35010G15KT P6SM SCT030 SCT080=



000
FTUS44 KLCH 172300
TAFLCH
TAF
KLCH 172331Z 1800/1824 06006KT P6SM FEW025 BKN100
     FM180100 03006KT P6SM BKN050
     FM180500 02005KT P6SM SCT012 SCT025 BKN050
     FM181400 01010KT P6SM SCT030 SCT050=



000
FTUS44 KLCH 172300
TAFAEX
TAF
KAEX 172331Z 1800/1824 04003KT P6SM SCT020 SCT040 OVC100
     FM180200 02004KT P6SM BKN035 OVC080
     FM181400 02010G15KT P6SM OVC035
     FM182200 02008KT P6SM SCT027=



000
FTUS44 KLCH 172300
TAFBPT
TAF
KBPT 172331Z 1800/1824 06010KT P6SM SCT025 BKN120
     FM180100 05006KT P6SM BKN060 BKN090
     FM181400 02010G15KT P6SM BKN029
     FM181800 01008KT P6SM SCT035=



000
FTUS44 KLCH 172300
TAFARA
TAF
KARA 172331Z 1800/1824 08010KT P6SM SCT025 SCT050 BKN120
     FM180600 01005KT P6SM BKN040
      TEMPO 1810/1814 OVC025
     FM181400 01010G15KT P6SM OVC025
     FM182200 36008KT P6SM SCT024=



000
FTUS44 KLCH 172300
TAFLFT
TAF
KLFT 172331Z 1800/1824 07003KT P6SM SCT025 SCT050 BKN120
     FM180600 01005KT P6SM BKN040
      TEMPO 1810/1814 OVC025
     FM181400 01008KT P6SM OVC025
     FM182200 01005KT P6SM SCT024=



000
FTUS44 KLCH 172200 AAA
TAFLFT
TAF AMD
KLFT 172216Z 1722/1818 07004KT P6SM VCSH SCT025 SCT050 BKN120
     FM180600 01005KT P6SM BKN040
      TEMPO 1810/1814 OVC025
     FM181400 01010KT P6SM OVC025=



000
FTUS44 KLCH 172200 AAB
TAFAEX
TAF AMD
KAEX 172205Z 1722/1818 VRB04KT P6SM SCT020 SCT040 OVC100
     FM180200 VRB04KT P6SM BKN035 OVC080
     FM181400 02010KT P6SM OVC035=



000
FTUS44 KLCH 172100 AAA
TAFARA
TAF AMD
KARA 172152Z 1722/1818 07010KT P6SM VCSH SCT025 SCT050 BKN120
     FM180600 03005KT P6SM BKN040
      TEMPO 1810/1814 OVC025
     FM181400 01010G15KT P6SM OVC025=



000
FTUS44 KLCH 172100 AAB
TAFLCH
TAF AMD
KLCH 172141Z 1722/1818 07010KT P6SM FEW025 BKN100
     FM180100 05006KT P6SM BKN050
     FM180500 03007KT P6SM SCT012 SCT025 BKN050
     FM181400 01010KT P6SM OVC027=



000
FTUS44 KLCH 171900 AAA
TAFBPT
TAF AMD
KBPT 171909Z 1719/1818 09012KT P6SM VCSH SCT025 BKN120
     FM180100 05006KT P6SM BKN050
      TEMPO 1810/1814 OVC025
     FM181400 01010KT P6SM OVC025=



000
FTUS44 KLCH 171900 AAA
TAFLCH
TAF AMD
KLCH 171909Z 1719/1818 09010KT P6SM VCSH SCT025 BKN100
      TEMPO 1719/1722 5SM SHRA OVC025
     FM180100 05006KT P6SM BKN050
      TEMPO 1810/1814 OVC025
     FM181400 01010KT P6SM OVC025=



000
FTUS44 KLCH 171900 AAA
TAFAEX
TAF AMD
KAEX 171908Z 1719/1818 09007KT P6SM VCSH SCT035 BKN080
      TEMPO 1719/1722 3SM SHRA BKN025 OVC035
     FM180100 VRB03KT P6SM BKN050
      TEMPO 1810/1814 OVC025
     FM181400 36007KT P6SM OVC025=



000
FTUS44 KLCH 171700
TAFLFT
TAF
KLFT 171720Z 1718/1818 06008KT P6SM VCSH SCT025 BKN050
      TEMPO 1718/1722 3SM SHRA OVC025
     FM180100 05005KT P6SM BKN050
      TEMPO 1810/1814 OVC025
     FM181400 01010KT P6SM OVC025=



000
FTUS44 KLCH 171700
TAFLCH
TAF
KLCH 171720Z 1718/1818 06010KT P6SM VCSH SCT025 BKN100
      TEMPO 1718/1722 3SM SHRA OVC025
     FM180100 05006KT P6SM BKN050
      TEMPO 1810/1814 OVC025
     FM181400 01010KT P6SM OVC025=



000
FTUS44 KLCH 171700
TAFAEX
TAF
KAEX 171720Z 1718/1818 14007KT P6SM SCT035 BKN120
     FM180100 VRB03KT P6SM BKN050
      TEMPO 1810/1814 OVC025
     FM181400 36007KT P6SM OVC025=



000
FTUS44 KLCH 171700
TAFBPT
TAF
KBPT 171720Z 1718/1818 06012KT P6SM VCSH SCT025 BKN100
      TEMPO 1718/1722 3SM SHRA OVC025
     FM180100 05006KT P6SM BKN050
      TEMPO 1810/1814 OVC025
     FM181400 01010KT P6SM OVC025=



000
FTUS44 KLCH 171700
TAFARA
TAF
KARA 171720Z 1718/1818 06010KT P6SM VCSH SCT025 BKN050
      TEMPO 1718/1722 3SM SHRA OVC025
     FM180100 05005KT P6SM BKN050
      TEMPO 1810/1814 OVC025
     FM181400 01010KT P6SM OVC025=



000
FTUS44 KLCH 171400 AAB
TAFBPT
TAF AMD
KBPT 171403Z 1714/1812 08010KT P6SM VCSH SCT025 BKN050
      TEMPO 1714/1718 3SM SHRA BKN025 OVC050
     FM171800 08012KT P6SM VCSH BKN035
     FM180100 06005KT P6SM BKN080=



000
FTUS44 KLCH 171200 AAA
TAFBPT
TAF AMD
KBPT 171245Z 1713/1812 08010KT P6SM VCSH BKN035
      TEMPO 1714/1718 BKN025
     FM171800 08012KT P6SM VCSH BKN035
     FM180100 06005KT P6SM BKN080=



000
FTUS44 KLCH 171100
TAFAEX
TAF
KAEX 171134Z 1712/1812 VRB03KT P6SM BKN080
     FM171600 12007KT P6SM SCT035
     FM172100 08006KT P6SM BKN035
     FM180100 VRB03KT P6SM BKN025=



000
FTUS44 KLCH 171100
TAFLCH
TAF
KLCH 171134Z 1712/1812 09006KT P6SM SCT035 BKN090
     FM171600 08010KT P6SM VCSH SCT025 BKN100
     FM180100 04005KT P6SM BKN080=



000
FTUS44 KLCH 171100
TAFLFT
TAF
KLFT 171134Z 1712/1812 04005KT P6SM BKN035
     FM171500 07007KT P6SM SCT025 BKN035
     FM180100 07005KT P6SM VCSH BKN025
     FM180500 VRB05KT P6SM OVC007=



000
FTUS44 KLCH 171100
TAFARA
TAF
KARA 171134Z 1712/1812 04006KT P6SM BKN035
     FM171500 08010KT P6SM SCT025 BKN035
     FM180100 08009KT P6SM VCSH BKN025
     FM180500 VRB05KT P6SM OVC007=



000
FTUS44 KLCH 171100
TAFBPT
TAF
KBPT 171134Z 1712/1812 08010KT P6SM BKN035
      TEMPO 1714/1718 BKN025
     FM171800 08012KT P6SM VCSH BKN035
     FM180100 06005KT P6SM BKN080=



000
FTUS44 KLCH 170900 AAA
TAFBPT
TAF AMD
KBPT 170955Z 1710/1806 08010KT P6SM BKN035
     FM171600 08010KT P6SM SCT025 BKN035 BKN080
     FM180100 07005KT P6SM BKN060=



000
FTUS44 KLCH 170900 AAA
TAFLCH
TAF AMD
KLCH 170955Z 1710/1806 09006KT P6SM SCT035 BKN090
     FM171600 09010KT P6SM SCT025 BKN035 BKN080
     FM180100 VRB05KT P6SM BKN045=



000
FTUS44 KLCH 170500
TAFAEX
TAF
KAEX 170520Z 1706/1806 VRB03KT P6SM SKC
     FM171500 11008KT P6SM SCT035
     FM171800 10012KT P6SM BKN035 BKN080 BKN220
     FM180000 06004KT P6SM BKN035 BKN080=



000
FTUS44 KLCH 170500
TAFBPT
TAF
KBPT 170520Z 1706/1806 13006KT P6SM BKN045
     FM171000 08010KT P6SM BKN025
     FM171600 08010KT P6SM SCT025 BKN035 BKN080
     FM180100 07005KT P6SM BKN060=



000
FTUS44 KLCH 170500
TAFLFT
TAF
KLFT 170520Z 1706/1806 VRB03KT P6SM SCT035
     FM171200 07008KT P6SM BKN035
     FM180100 VRB04KT P6SM SCT025 BKN035=



000
FTUS44 KLCH 170500
TAFARA
TAF
KARA 170520Z 1706/1806 VRB04KT P6SM SCT035
     FM171200 07007KT P6SM BKN035
     FM180100 VRB04KT P6SM SCT025 BKN035=



000
FTUS44 KLCH 170500
TAFLCH
TAF
KLCH 170520Z 1706/1806 14004KT P6SM SCT025
     FM170900 09006KT P6SM BKN025
     FM171600 09010KT P6SM SCT025 BKN035 BKN080
     FM180100 VRB05KT P6SM BKN045=



000
FTUS44 KLCH 162300
TAFAEX
TAF
KAEX 162338Z 1700/1724 14005KT P6SM SKC
     FM171500 11008KT P6SM SCT035
     FM171800 10008KT P6SM BKN035 BKN080 BKN220=



000
FTUS44 KLCH 162300
TAFLCH
TAF
KLCH 162338Z 1700/1724 14007KT P6SM FEW045
     FM170100 12005KT P6SM SCT025
     FM170900 10008KT P6SM BKN025
     FM171600 11010KT P6SM SCT025 BKN035 BKN080=



000
FTUS44 KLCH 162300
TAFLFT
TAF
KLFT 162338Z 1700/1724 16007KT P6SM SCT045
     FM170100 12004KT P6SM SCT025
     FM171200 07004KT P6SM BKN025
     FM171600 09006KT P6SM SCT025 BKN035=



000
FTUS44 KLCH 162300
TAFARA
TAF
KARA 162338Z 1700/1724 18010KT P6SM SCT045
     FM170100 VRB04KT P6SM SCT025
      TEMPO 1712/1716 BKN025
     FM171600 11010KT P6SM SCT025 BKN035=



000
FTUS44 KLCH 162300
TAFBPT
TAF
KBPT 162338Z 1700/1724 12008KT P6SM BKN035
     FM170100 13007KT P6SM BKN045
     FM171000 09010KT P6SM BKN025
     FM171600 10010KT P6SM SCT025 BKN035 BKN080=



000
FTUS44 KLCH 162200 AAA
TAFLFT
TAF AMD
KLFT 162226Z 1622/1718 16007KT P6SM SCT045
     FM170100 12004KT P6SM SCT025
     FM171200 07004KT P6SM BKN025
     FM171600 09006KT P6SM SCT025 BKN035=



000
FTUS44 KLCH 162200 AAA
TAFAEX
TAF AMD
KAEX 162221Z 1622/1718 12006KT P6SM SKC
     FM170000 14003KT P6SM SKC
     FM171500 11008KT P6SM SCT035=



000
FTUS44 KLCH 162200 AAC
TAFBPT
TAF AMD
KBPT 162219Z 1622/1718 15012KT P6SM BKN035
     FM170100 13007KT P6SM BKN045
     FM171000 09010KT P6SM BKN025
     FM171600 10010KT P6SM SCT025 BKN035=



000
FTUS44 KLCH 162200 AAB
TAFBPT
TAF AMD
KBPT 162214Z 1622/1718 15012KT P6SM BKN035
     FM170100 13007KT P6SM BKN045
     FM171000 09010KT P6SM BKN025
     FM171600 10010KT P6SM SCT021 BKN035=



000
FTUS44 KLCH 162100 AAA
TAFLCH
TAF AMD
KLCH 162148Z 1622/1718 15007KT P6SM FEW045
     FM170100 12005KT P6SM SCT025
      TEMPO 1712/1716 BKN025
     FM171600 11010KT P6SM SCT025 BKN035=



000
FTUS44 KLCH 162100 AAA
TAFBPT
TAF AMD
KBPT 162136Z 1622/1718 14008KT P6SM SCT035
     FM170100 12006KT P6SM SCT025
      TEMPO 1712/1716 BKN025
     FM171600 10010KT P6SM SCT025 BKN035=



000
FTUS44 KLCH 162100 AAA
TAFARA
TAF AMD
KARA 162123Z 1621/1718 18010KT P6SM SCT045
     FM170100 VRB04KT P6SM SCT025
      TEMPO 1712/1716 BKN025
     FM171600 11010KT P6SM SCT025 BKN035=



000
FTUS44 KLCH 161700
TAFLFT
TAF
KLFT 161720Z 1618/1718 13008KT P6SM SKC
     FM170100 12004KT P6SM SCT025
      TEMPO 1712/1716 BKN025
     FM171600 12010KT P6SM SCT025 BKN035=



000
FTUS44 KLCH 161700
TAFARA
TAF
KARA 161720Z 1618/1718 13011G19KT P6SM SKC
     FM170100 12006KT P6SM SCT025
      TEMPO 1712/1716 BKN025
     FM171600 12012G20KT P6SM SCT025 BKN035=



000
FTUS44 KLCH 161700
TAFAEX
TAF
KAEX 161720Z 1618/1718 13010KT P6SM SKC
     FM170000 VRB03KT P6SM SKC
     FM171500 12008KT P6SM SCT035=



000
FTUS44 KLCH 161700
TAFBPT
TAF
KBPT 161720Z 1618/1718 14013G21KT P6SM SCT035
     FM170100 12006KT P6SM SCT025
      TEMPO 1712/1716 BKN025
     FM171600 13014G22KT P6SM SCT025 BKN035=



000
FTUS44 KLCH 161700
TAFLCH
TAF
KLCH 161720Z 1618/1718 13012G20KT P6SM FEW035
     FM170100 12005KT P6SM SCT025
      TEMPO 1712/1716 BKN025
     FM171600 12012G20KT P6SM SCT025 BKN035=



    US Dept of Commerce
    National Oceanic and Atmospheric Administration
    National Weather Service
    1325 East West Highway
    Silver Spring, MD 20910
    Page Author: NWS Internet Services Team
Disclaimer
Information Quality
Credits
Glossary
Privacy Policy
Freedom of Information Act (FOIA)
About Us
Career Opportunities